Portada
METAR-TAF:

METAR-TAF

Aeropuertos :

Turín, Italia

latitud: 45-05-20N, longitud: 007-36-20E, altitud: 288 m

Observación

El informe se hizo hace 34 minutos, a las 08:00 UTC
Viento 3 kt del sur-sureste
Temperatura 6°C
Humedad 81%
Presión 1025 hPa
Visibilidad 10 km o más
Escasas nubes a una altura de 1500 ft

METAR: LIMA 070800Z 15003KT 9999 FEW015 06/03 Q1025

Hora: 09:34 (08:34 UTC)


TAF: falta

Observaciones y pronósticos meteorológicos de más de 4000 aeropuertos (mensajes METAR y TAF).

Los puntos amarillos y rojos representan las estaciones disponibles.

Ponga el ratón en el punto deseado para ver el nombre de la estación.

Haga clic para ver las observaciones y los pronósticos meteorológicos.

Para cambiar el mapa : haga clic en los botones verdes con una cruz de color negro para hacer un zoom, en el botón verde con un guión para alejar o en las flechas verdes para mapas adyacentes.


METAR-TAF: